createdAt,value
2022-11-12T00:00:20.685Z,4.13
2022-11-12T00:03:06.252Z,3.53
2022-11-12T00:05:51.477Z,4.00
2022-11-12T00:08:37.153Z,4.07
2022-11-12T00:11:22.380Z,3.45
2022-11-12T00:14:07.971Z,3.80
2022-11-12T00:16:53.678Z,4.05
2022-11-12T00:19:39.223Z,4.47
2022-11-12T00:22:24.513Z,3.83
2022-11-12T00:25:10.583Z,4.00
2022-11-12T00:28:05.461Z,3.78
2022-11-12T00:30:50.687Z,3.85
2022-11-12T00:33:40.575Z,4.32
2022-11-12T00:36:26.318Z,5.20
2022-11-12T00:39:11.842Z,4.95
2022-11-12T00:41:57.215Z,4.55
2022-11-12T00:44:42.312Z,4.95
2022-11-12T00:47:27.881Z,4.65
2022-11-12T00:50:13.324Z,4.78
2022-11-12T00:52:58.738Z,4.63
2022-11-12T00:55:43.943Z,4.43
2022-11-12T00:58:34.915Z,4.78
2022-11-12T01:01:21.007Z,4.85
2022-11-12T01:04:06.876Z,5.90
2022-11-12T01:06:51.970Z,5.72
2022-11-12T01:09:37.201Z,5.03
2022-11-12T01:12:22.526Z,5.32
2022-11-12T01:15:08.717Z,5.03
2022-11-12T01:17:53.809Z,5.45
2022-11-12T01:20:39.398Z,4.43
2022-11-12T01:23:24.579Z,5.15
2022-11-12T01:26:12.862Z,5.20
2022-11-12T01:28:58.149Z,5.53
2022-11-12T01:31:43.435Z,6.57
2022-11-12T01:34:28.785Z,5.93
2022-11-12T01:37:13.903Z,7.78
2022-11-12T01:39:58.975Z,8.10
2022-11-12T01:42:51.584Z,6.63
2022-11-12T01:45:40.159Z,6.63
2022-11-12T01:48:27.957Z,5.78
2022-11-12T01:51:15.133Z,5.28
2022-11-12T01:54:06.995Z,5.93
2022-11-12T01:56:52.680Z,6.57
2022-11-12T01:59:43.808Z,6.07
2022-11-12T02:02:31.051Z,5.60
2022-11-12T02:05:18.218Z,7.20
2022-11-12T02:08:05.651Z,5.10
2022-11-12T02:10:51.151Z,5.38
2022-11-12T02:13:55.216Z,6.30
2022-11-12T02:16:43.007Z,5.95
2022-11-12T02:19:28.217Z,5.85
2022-11-12T02:22:13.712Z,5.65
2022-11-12T02:24:59.005Z,5.40
2022-11-12T02:27:45.056Z,4.85
2022-11-12T02:30:46.300Z,4.93
2022-11-12T02:33:31.589Z,4.43
2022-11-12T02:36:16.856Z,4.20
2022-11-12T02:39:02.186Z,4.00
2022-11-12T02:41:47.430Z,4.05
2022-11-12T02:44:33.027Z,3.70
2022-11-12T02:47:18.182Z,4.03
2022-11-12T02:50:04.933Z,4.28
2022-11-12T02:52:50.406Z,4.22
2022-11-12T02:55:35.879Z,3.40
2022-11-12T02:58:22.578Z,3.63
2022-11-12T03:01:07.705Z,3.78
2022-11-12T03:03:52.999Z,3.65
2022-11-12T03:06:39.535Z,3.55
2022-11-12T03:09:24.701Z,3.80
2022-11-12T03:12:10.046Z,3.63
2022-11-12T03:14:55.198Z,3.50
2022-11-12T03:17:40.602Z,3.50
2022-11-12T03:20:26.831Z,3.38
2022-11-12T03:23:12.095Z,3.90
2022-11-12T03:25:57.386Z,3.70
2022-11-12T03:28:42.818Z,3.45
2022-11-12T03:31:28.247Z,4.00
2022-11-12T03:34:13.690Z,4.25
2022-11-12T03:36:58.796Z,4.38
2022-11-12T03:39:43.879Z,3.80
2022-11-12T03:42:28.984Z,3.75
2022-11-12T03:45:15.026Z,4.00
2022-11-12T03:48:00.504Z,3.88
2022-11-12T03:50:45.921Z,4.00
2022-11-12T03:53:31.179Z,4.78
2022-11-12T03:56:16.651Z,5.80
2022-11-12T03:59:01.959Z,4.75
2022-11-12T04:01:47.352Z,5.50
2022-11-12T04:04:51.139Z,4.07
2022-11-12T04:07:55.355Z,4.07
2022-11-12T04:10:40.692Z,3.83
2022-11-12T04:13:28.718Z,3.90
2022-11-12T04:16:34.971Z,3.58
2022-11-12T04:19:38.947Z,4.07
2022-11-12T04:22:24.214Z,4.40
2022-11-12T04:25:27.860Z,4.93
2022-11-12T04:28:13.140Z,4.70
2022-11-12T04:30:58.294Z,4.50
2022-11-12T04:33:43.568Z,4.00
2022-11-12T04:36:28.657Z,4.30
2022-11-12T04:39:13.928Z,4.78
2022-11-12T04:42:17.696Z,3.70
2022-11-12T04:45:06.950Z,3.30
2022-11-12T04:47:52.062Z,3.28
2022-11-12T04:50:37.564Z,3.67
2022-11-12T04:53:23.809Z,3.60
2022-11-12T04:56:09.067Z,4.00
2022-11-12T04:58:54.255Z,3.63
2022-11-12T05:01:39.645Z,6.30
2022-11-12T05:04:27.640Z,7.20
2022-11-12T05:07:13.986Z,5.90
2022-11-12T05:09:59.310Z,4.20
2022-11-12T05:12:44.682Z,4.82
2022-11-12T05:15:30.027Z,5.15
2022-11-12T05:18:15.333Z,4.75
2022-11-12T05:21:20.324Z,5.00
2022-11-12T05:24:06.251Z,4.53
2022-11-12T05:26:51.731Z,4.45
2022-11-12T05:29:37.020Z,4.20
2022-11-12T05:32:22.252Z,4.72
2022-11-12T05:35:07.820Z,4.60
2022-11-12T05:37:53.157Z,3.95
2022-11-12T05:40:38.273Z,4.53
2022-11-12T05:43:23.673Z,3.90
2022-11-12T05:46:09.870Z,4.25
2022-11-12T05:48:55.244Z,5.97
2022-11-12T05:51:40.265Z,5.13
2022-11-12T05:54:25.418Z,5.18
2022-11-12T05:57:10.808Z,4.93
2022-11-12T05:59:56.320Z,4.68
2022-11-12T06:02:43.024Z,4.45
2022-11-12T06:05:28.268Z,4.47
2022-11-12T06:08:13.330Z,4.18
2022-11-12T06:10:58.359Z,4.40
2022-11-12T06:13:43.927Z,4.07
2022-11-12T06:16:29.744Z,4.65
2022-11-12T06:19:14.878Z,4.35
2022-11-12T06:22:00.395Z,4.75
2022-11-12T06:24:46.131Z,4.13
2022-11-12T06:27:32.215Z,3.92
2022-11-12T06:30:17.534Z,4.03
2022-11-12T06:33:03.766Z,4.50
2022-11-12T06:35:56.992Z,3.75
2022-11-12T06:38:42.936Z,3.08
2022-11-12T06:41:28.123Z,3.05
2022-11-12T06:44:14.682Z,3.47
2022-11-12T06:47:03.278Z,2.88
2022-11-12T06:49:48.481Z,2.88
2022-11-12T06:52:33.939Z,2.63
2022-11-12T06:55:19.423Z,2.65
2022-11-12T06:58:04.666Z,2.40
2022-11-12T07:00:50.029Z,2.67
2022-11-12T07:03:35.627Z,2.70
2022-11-12T07:06:21.071Z,2.60
2022-11-12T07:09:07.222Z,2.78
2022-11-12T07:11:52.421Z,2.70
2022-11-12T07:14:37.598Z,2.22
2022-11-12T07:17:22.897Z,2.60
2022-11-12T07:20:08.961Z,2.67
2022-11-12T07:22:54.034Z,3.00
2022-11-12T07:25:39.251Z,3.05
2022-11-12T07:28:25.511Z,3.53
2022-11-12T07:31:13.160Z,3.95
2022-11-12T07:33:58.691Z,8.10
2022-11-12T07:36:44.057Z,4.30
2022-11-12T07:39:29.535Z,7.38
2022-11-12T07:42:14.991Z,7.53
2022-11-12T07:45:00.141Z,7.05
2022-11-12T07:47:45.630Z,7.05
2022-11-12T07:50:31.105Z,5.80
2022-11-12T07:53:16.258Z,5.13
2022-11-12T07:56:04.432Z,4.53
2022-11-12T07:58:50.467Z,4.20
2022-11-12T08:01:40.911Z,4.00
2022-11-12T08:04:26.273Z,4.40
2022-11-12T08:07:11.728Z,3.90
2022-11-12T08:09:56.959Z,4.97
2022-11-12T08:12:42.296Z,4.10
2022-11-12T08:15:27.376Z,4.30
2022-11-12T08:18:13.066Z,5.03
2022-11-12T08:21:02.895Z,4.82
2022-11-12T08:23:48.489Z,4.40
2022-11-12T08:26:33.892Z,3.80
2022-11-12T08:29:18.902Z,4.03
2022-11-12T08:32:04.152Z,4.03
2022-11-12T08:34:49.284Z,3.90
2022-11-12T08:37:34.311Z,3.92
2022-11-12T08:40:19.697Z,4.15
2022-11-12T08:43:07.300Z,4.97
2022-11-12T08:45:52.645Z,4.88
2022-11-12T08:48:39.980Z,4.45
2022-11-12T08:51:25.672Z,5.13
2022-11-12T08:54:11.146Z,5.30
2022-11-12T08:56:56.268Z,4.90
2022-11-12T08:59:42.139Z,4.60
2022-11-12T09:02:27.891Z,4.93
2022-11-12T09:05:13.544Z,4.70
2022-11-12T09:08:01.229Z,5.10
2022-11-12T09:10:47.659Z,5.22
2022-11-12T09:13:34.126Z,4.70
2022-11-12T09:16:21.321Z,4.95
2022-11-12T09:19:07.200Z,7.00
2022-11-12T09:21:53.039Z,6.13
2022-11-12T09:24:39.003Z,4.88
2022-11-12T09:27:27.537Z,4.30
2022-11-12T09:30:14.460Z,5.80
2022-11-12T09:33:00.240Z,4.80
2022-11-12T09:35:46.846Z,4.55
2022-11-12T09:38:33.441Z,5.03
2022-11-12T09:41:33.876Z,5.85
2022-11-12T09:44:22.115Z,5.13
2022-11-12T09:47:25.023Z,5.18
2022-11-12T09:50:31.944Z,3.65
2022-11-12T09:53:33.210Z,3.95
2022-11-12T09:56:21.753Z,3.20
2022-11-12T09:59:13.687Z,5.45
2022-11-12T10:02:37.528Z,5.10
2022-11-12T10:05:36.608Z,3.70
2022-11-12T10:08:46.910Z,9.07
2022-11-12T10:12:10.799Z,4.85
2022-11-12T10:15:49.969Z,4.45
2022-11-12T10:19:16.801Z,11.68
2022-11-12T10:22:20.598Z,4.85
2022-11-12T10:25:32.812Z,5.50
2022-11-12T10:28:26.951Z,4.65
2022-11-12T10:31:16.465Z,4.75
2022-11-12T10:34:29.289Z,4.78
2022-11-12T10:37:24.640Z,5.10
2022-11-12T10:40:24.919Z,6.65
2022-11-12T10:43:15.854Z,5.65
2022-11-12T10:46:24.583Z,4.68
2022-11-12T10:49:16.308Z,4.97
2022-11-12T10:52:01.292Z,5.50
2022-11-12T10:54:50.924Z,5.55
2022-11-12T10:57:39.470Z,4.85
2022-11-12T11:00:25.363Z,5.47
2022-11-12T11:03:22.356Z,8.73
2022-11-12T11:06:25.930Z,10.00
2022-11-12T11:09:18.017Z,5.93
2022-11-12T11:12:03.609Z,6.50
2022-11-12T11:15:07.423Z,4.40
2022-11-12T11:17:52.753Z,4.40
2022-11-12T11:20:47.468Z,4.80
2022-11-12T11:23:40.417Z,4.75
2022-11-12T11:26:47.208Z,6.05
2022-11-12T11:29:48.741Z,5.75
2022-11-12T11:33:00.818Z,5.35
2022-11-12T11:36:10.309Z,4.20
2022-11-12T11:39:15.333Z,4.40
2022-11-12T11:42:38.037Z,6.53
2022-11-12T11:45:31.661Z,6.03
2022-11-12T11:48:29.081Z,4.97
2022-11-12T11:51:26.543Z,5.03
2022-11-12T11:54:17.474Z,4.85
2022-11-12T11:57:12.511Z,4.88
2022-11-12T12:00:29.305Z,4.65
2022-11-12T12:03:19.864Z,4.30
2022-11-12T12:06:12.311Z,4.80
2022-11-12T12:09:10.534Z,4.30
2022-11-12T12:12:15.198Z,4.55
2022-11-12T12:15:15.875Z,4.32
2022-11-12T12:18:04.048Z,5.05
2022-11-12T12:21:23.206Z,5.63
2022-11-12T12:24:36.082Z,5.03
2022-11-12T12:27:26.049Z,4.60
2022-11-12T12:30:22.557Z,4.63
2022-11-12T12:33:22.979Z,5.03
2022-11-12T12:36:19.368Z,5.13
2022-11-12T12:39:25.061Z,5.20
2022-11-12T12:42:18.561Z,13.25
2022-11-12T12:45:24.871Z,4.65
2022-11-12T12:48:24.544Z,4.80
2022-11-12T12:51:10.141Z,4.30
2022-11-12T12:53:55.432Z,4.63
2022-11-12T12:56:47.194Z,5.20
2022-11-12T12:59:32.641Z,36.35
2022-11-12T13:02:24.422Z,10.82
2022-11-12T13:05:32.943Z,5.78
2022-11-12T13:08:26.276Z,4.68
2022-11-12T13:11:57.882Z,6.13
2022-11-12T13:14:43.146Z,4.70
2022-11-12T13:17:47.292Z,4.40
2022-11-12T13:20:36.110Z,6.28
2022-11-12T13:24:07.420Z,7.13
2022-11-12T13:26:58.220Z,7.00
2022-11-12T13:29:44.560Z,4.63
2022-11-12T13:32:34.009Z,5.20
2022-11-12T13:35:22.068Z,4.25
2022-11-12T13:38:13.106Z,4.32
2022-11-12T13:41:43.067Z,4.10
2022-11-12T13:44:29.337Z,3.65
2022-11-12T13:47:18.576Z,4.07
2022-11-12T13:50:08.506Z,4.07
2022-11-12T13:52:54.145Z,3.78
2022-11-12T13:55:49.224Z,4.30
2022-11-12T13:58:36.625Z,3.60
2022-11-12T14:01:24.096Z,3.83
2022-11-12T14:04:18.817Z,3.50
2022-11-12T14:07:23.677Z,4.18
2022-11-12T14:10:35.745Z,3.63
2022-11-12T14:13:37.760Z,5.47
2022-11-12T14:16:34.986Z,4.75
2022-11-12T14:19:25.963Z,5.22
2022-11-12T14:22:13.829Z,4.55
2022-11-12T14:25:01.262Z,5.30
2022-11-12T14:27:48.095Z,5.40
2022-11-12T14:30:33.240Z,5.32
2022-11-12T14:33:21.223Z,5.28
2022-11-12T14:36:10.250Z,5.13
2022-11-12T14:38:57.546Z,5.57
2022-11-12T14:41:43.102Z,11.05
2022-11-12T14:44:37.718Z,8.13
2022-11-12T14:47:24.126Z,8.88
2022-11-12T14:50:26.443Z,9.43
2022-11-12T14:53:24.518Z,9.15
2022-11-12T14:56:35.392Z,9.60
2022-11-12T14:59:21.230Z,9.73
2022-11-12T15:02:42.627Z,10.20
2022-11-12T15:05:23.421Z,8.93
2022-11-12T15:08:12.208Z,9.23
2022-11-12T15:11:20.303Z,8.98
2022-11-12T15:14:13.656Z,9.60
2022-11-12T15:17:00.565Z,9.88
2022-11-12T15:19:45.713Z,11.45
2022-11-12T15:22:31.724Z,11.85
2022-11-12T15:25:17.473Z,11.48
2022-11-12T15:28:22.844Z,12.15
2022-11-12T15:31:21.017Z,11.98
2022-11-12T15:34:25.245Z,11.45
2022-11-12T15:37:20.510Z,13.70
2022-11-12T15:40:12.422Z,14.05
2022-11-12T15:42:58.342Z,15.55
2022-11-12T15:45:43.837Z,18.38
2022-11-12T15:48:29.264Z,19.20
2022-11-12T15:51:16.151Z,17.33
2022-11-12T15:54:01.525Z,16.35
2022-11-12T15:56:47.715Z,15.63
2022-11-12T15:59:33.119Z,15.88
2022-11-12T16:02:18.396Z,15.95
2022-11-12T16:05:03.486Z,15.30
2022-11-12T16:07:48.709Z,16.08
2022-11-12T16:10:34.398Z,16.00
2022-11-12T16:13:32.040Z,17.05
2022-11-12T16:16:17.516Z,15.55
2022-11-12T16:19:03.012Z,14.25
2022-11-12T16:21:48.353Z,13.95
2022-11-12T16:24:33.523Z,17.63
2022-11-12T16:27:20.446Z,16.73
2022-11-12T16:30:27.562Z,14.20
2022-11-12T16:33:14.231Z,15.75
2022-11-12T16:35:59.381Z,13.38
2022-11-12T16:38:46.066Z,12.77
2022-11-12T16:41:31.580Z,12.38
2022-11-12T16:44:17.030Z,13.07
2022-11-12T16:47:03.878Z,13.98
2022-11-12T16:49:49.136Z,13.73
2022-11-12T16:52:34.793Z,14.68
2022-11-12T16:55:21.381Z,14.60
2022-11-12T16:58:06.596Z,14.10
2022-11-12T17:00:52.017Z,15.30
2022-11-12T17:03:37.045Z,15.63
2022-11-12T17:06:24.162Z,16.88
2022-11-12T17:09:11.734Z,16.27
2022-11-12T17:11:56.883Z,13.75
2022-11-12T17:14:42.400Z,14.35
2022-11-12T17:17:27.716Z,12.77
2022-11-12T17:20:12.922Z,13.02
2022-11-12T17:22:58.338Z,14.13
2022-11-12T17:25:43.984Z,10.40
2022-11-12T17:28:30.503Z,12.85
2022-11-12T17:31:21.599Z,14.18
2022-11-12T17:34:07.181Z,12.70
2022-11-12T17:36:52.598Z,10.55
2022-11-12T17:39:38.116Z,11.32
2022-11-12T17:42:23.376Z,10.35
2022-11-12T17:45:09.461Z,10.80
2022-11-12T17:47:54.810Z,11.50
2022-11-12T17:50:40.386Z,8.40
2022-11-12T17:53:26.098Z,9.48
2022-11-12T17:56:14.824Z,10.55
2022-11-12T17:59:01.432Z,11.40
2022-11-12T18:01:46.477Z,9.73
2022-11-12T18:04:32.722Z,9.98
2022-11-12T18:07:18.710Z,10.18
2022-11-12T18:10:04.964Z,11.02
2022-11-12T18:12:52.173Z,14.98
2022-11-12T18:15:37.612Z,14.00
2022-11-12T18:18:23.394Z,15.98
2022-11-12T18:21:08.569Z,14.30
2022-11-12T18:23:54.163Z,10.55
2022-11-12T18:26:39.375Z,12.77
2022-11-12T18:29:24.605Z,12.45
2022-11-12T18:32:09.999Z,10.68
2022-11-12T18:34:55.514Z,10.82
2022-11-12T18:37:41.181Z,10.98
2022-11-12T18:40:27.064Z,11.95
2022-11-12T18:43:12.450Z,13.57
2022-11-12T18:46:00.968Z,14.93
2022-11-12T18:48:47.350Z,12.20
2022-11-12T18:51:32.902Z,13.20
2022-11-12T18:54:18.269Z,9.93
2022-11-12T18:57:03.772Z,11.73
2022-11-12T18:59:49.483Z,16.90
2022-11-12T19:02:34.999Z,15.93
2022-11-12T19:05:22.009Z,14.77
2022-11-12T19:08:07.456Z,14.95
2022-11-12T19:11:00.248Z,13.23
2022-11-12T19:13:45.777Z,13.27
2022-11-12T19:16:31.301Z,14.32
2022-11-12T19:19:16.646Z,12.77
2022-11-12T19:22:01.839Z,12.07
2022-11-12T19:24:47.239Z,12.52
2022-11-12T19:27:32.374Z,11.52
2022-11-12T19:30:17.839Z,13.35
2022-11-12T19:33:03.094Z,10.77
2022-11-12T19:35:48.696Z,13.02
2022-11-12T19:38:33.952Z,10.90
2022-11-12T19:41:20.195Z,10.50
2022-11-12T19:44:05.750Z,12.23
2022-11-12T19:46:51.148Z,13.05
2022-11-12T19:49:36.669Z,12.98
2022-11-12T19:52:22.460Z,11.85
2022-11-12T19:55:07.959Z,11.07
2022-11-12T19:57:53.521Z,12.80
2022-11-12T20:00:38.765Z,12.02
2022-11-12T20:03:26.159Z,12.45
2022-11-12T20:06:13.733Z,12.50
2022-11-12T20:09:03.851Z,14.63
2022-11-12T20:11:50.742Z,13.65
2022-11-12T20:14:35.969Z,20.02
2022-11-12T20:17:21.474Z,13.70
2022-11-12T20:20:09.380Z,15.00
2022-11-12T20:22:54.651Z,12.70
2022-11-12T20:25:40.054Z,13.90
2022-11-12T20:28:25.301Z,11.65
2022-11-12T20:31:16.979Z,12.23
2022-11-12T20:34:02.111Z,10.05
2022-11-12T20:36:47.395Z,10.57
2022-11-12T20:39:32.770Z,10.60
2022-11-12T20:42:18.158Z,11.38
2022-11-12T20:45:03.380Z,10.00
2022-11-12T20:47:48.622Z,11.65
2022-11-12T20:50:34.148Z,10.70
2022-11-12T20:53:19.588Z,11.60
2022-11-12T20:56:06.897Z,14.65
2022-11-12T20:58:52.975Z,15.45
2022-11-12T21:01:38.780Z,14.13
2022-11-12T21:04:24.830Z,14.70
2022-11-12T21:07:10.456Z,13.10
2022-11-12T21:09:55.955Z,12.20
2022-11-12T21:12:41.574Z,14.63
2022-11-12T21:15:27.088Z,10.43
2022-11-12T21:18:12.671Z,9.95
2022-11-12T21:21:11.959Z,9.20
2022-11-12T21:24:00.612Z,9.70
2022-11-12T21:26:49.732Z,9.63
2022-11-12T21:29:34.982Z,11.93
2022-11-12T21:32:20.004Z,12.93
2022-11-12T21:35:05.816Z,12.13
2022-11-12T21:37:50.869Z,10.38
2022-11-12T21:40:36.256Z,10.15
2022-11-12T21:43:21.510Z,10.10
2022-11-12T21:46:08.364Z,9.02
2022-11-12T21:48:55.519Z,11.27
2022-11-12T21:51:41.196Z,10.75
2022-11-12T21:54:26.713Z,9.65
2022-11-12T21:57:17.613Z,8.52
2022-11-12T22:00:34.484Z,6.70
2022-11-12T22:03:10.333Z,7.13
2022-11-12T22:05:55.682Z,6.10
2022-11-12T22:08:41.769Z,6.53
2022-11-12T22:11:27.590Z,7.75
2022-11-12T22:14:12.692Z,7.10
2022-11-12T22:16:58.156Z,8.57
2022-11-12T22:19:43.222Z,13.02
2022-11-12T22:22:28.656Z,8.10
2022-11-12T22:25:14.117Z,6.75
2022-11-12T22:27:59.660Z,6.28
2022-11-12T22:30:45.271Z,6.90
2022-11-12T22:33:30.686Z,34.75
2022-11-12T22:36:17.989Z,23.40
2022-11-12T22:39:04.810Z,11.50
2022-11-12T22:41:50.056Z,9.70
2022-11-12T22:44:35.259Z,9.70
2022-11-12T22:47:20.716Z,9.07
2022-11-12T22:50:06.824Z,9.50
2022-11-12T22:52:52.377Z,10.13
2022-11-12T22:55:37.529Z,9.05
2022-11-12T22:58:23.001Z,9.50
2022-11-12T23:01:16.605Z,14.77
2022-11-12T23:04:04.544Z,11.80
2022-11-12T23:06:49.886Z,13.60
2022-11-12T23:09:35.038Z,13.57
2022-11-12T23:12:20.489Z,12.43
2022-11-12T23:15:06.586Z,13.10
2022-11-12T23:17:51.851Z,11.23
2022-11-12T23:20:37.120Z,10.57
2022-11-12T23:23:22.651Z,7.90
2022-11-12T23:26:09.459Z,8.05
2022-11-12T23:28:54.799Z,7.80
2022-11-12T23:31:40.397Z,8.10
2022-11-12T23:34:25.769Z,8.82
2022-11-12T23:37:10.892Z,8.32
2022-11-12T23:39:55.968Z,9.40
2022-11-12T23:42:41.112Z,8.35
2022-11-12T23:45:26.289Z,9.00
2022-11-12T23:48:11.439Z,9.70
2022-11-12T23:51:05.730Z,10.13
2022-11-12T23:53:51.210Z,9.85
2022-11-12T23:56:36.729Z,8.45
2022-11-12T23:59:22.156Z,8.85
